createdAt,value
2017-12-22T00:00:21.999Z,8.00
2017-12-22T00:02:56.617Z,7.95
2017-12-22T00:05:37.315Z,7.93
2017-12-22T00:08:12.540Z,7.91
2017-12-22T00:10:47.500Z,7.87
2017-12-22T00:13:22.743Z,7.86
2017-12-22T00:15:57.657Z,7.86
2017-12-22T00:18:32.564Z,7.81
2017-12-22T00:21:07.441Z,7.77
2017-12-22T00:23:49.280Z,7.79
2017-12-22T00:26:24.272Z,7.80
2017-12-22T00:28:58.875Z,7.85
2017-12-22T00:31:33.713Z,7.85
2017-12-22T00:34:08.351Z,7.83
2017-12-22T00:36:42.753Z,7.79
2017-12-22T00:39:17.952Z,7.82
2017-12-22T00:41:52.331Z,7.85
2017-12-22T00:44:27.597Z,7.92
2017-12-22T00:47:02.445Z,7.87
2017-12-22T00:49:37.063Z,7.83
2017-12-22T00:52:11.982Z,7.84
2017-12-22T00:54:47.005Z,7.89
2017-12-22T00:57:22.062Z,7.92
2017-12-22T00:59:57.280Z,7.95
2017-12-22T01:02:32.536Z,7.93
2017-12-22T01:05:08.073Z,7.87
2017-12-22T01:07:42.597Z,7.85
2017-12-22T01:10:17.644Z,7.84
2017-12-22T01:12:52.888Z,7.89
2017-12-22T01:15:33.228Z,7.89
2017-12-22T01:18:13.157Z,7.84
2017-12-22T01:20:48.110Z,7.81
2017-12-22T01:23:22.936Z,7.84
2017-12-22T01:25:57.892Z,7.88
2017-12-22T01:28:33.197Z,7.87
2017-12-22T01:31:08.124Z,7.87
2017-12-22T01:33:43.264Z,7.90
2017-12-22T01:36:18.461Z,7.93
2017-12-22T01:38:53.384Z,7.94
2017-12-22T01:41:28.236Z,7.95
2017-12-22T01:44:03.032Z,7.89
2017-12-22T01:46:38.388Z,7.89
2017-12-22T01:49:13.148Z,7.84
2017-12-22T01:51:48.368Z,7.87
2017-12-22T01:54:23.579Z,7.88
2017-12-22T01:56:58.556Z,7.88
2017-12-22T01:59:33.361Z,7.88
2017-12-22T02:02:08.073Z,7.86
2017-12-22T02:04:42.527Z,7.88
2017-12-22T02:07:17.851Z,7.87
2017-12-22T02:09:53.109Z,7.88
2017-12-22T02:12:27.941Z,7.88
2017-12-22T02:15:02.888Z,7.82
2017-12-22T02:17:38.128Z,7.80
2017-12-22T02:20:13.248Z,7.72
2017-12-22T02:22:48.598Z,7.74
2017-12-22T02:25:23.476Z,7.76
2017-12-22T02:27:58.101Z,7.75
2017-12-22T02:30:33.033Z,7.79
2017-12-22T02:33:07.769Z,7.67
2017-12-22T02:35:42.796Z,7.67
2017-12-22T02:38:17.774Z,7.66
2017-12-22T02:40:52.935Z,7.67
2017-12-22T02:43:27.501Z,7.67
2017-12-22T02:46:02.512Z,7.65
2017-12-22T02:48:37.541Z,7.71
2017-12-22T02:51:12.760Z,7.74
2017-12-22T02:53:48.097Z,7.74
2017-12-22T02:56:23.267Z,7.73
2017-12-22T02:58:58.096Z,7.72
2017-12-22T03:01:33.348Z,7.74
2017-12-22T03:04:08.147Z,7.73
2017-12-22T03:06:42.617Z,7.69
2017-12-22T03:09:17.371Z,7.67
2017-12-22T03:11:52.644Z,7.70
2017-12-22T03:14:27.370Z,7.70
2017-12-22T03:17:02.616Z,7.69
2017-12-22T03:19:37.350Z,7.68
2017-12-22T03:22:12.212Z,7.61
2017-12-22T03:24:47.180Z,7.63
2017-12-22T03:27:24.124Z,7.63
2017-12-22T03:29:58.600Z,7.62
2017-12-22T03:32:33.628Z,7.61
2017-12-22T03:35:08.403Z,7.60
2017-12-22T03:37:43.429Z,7.57
2017-12-22T03:40:18.261Z,7.50
2017-12-22T03:42:53.228Z,7.49
2017-12-22T03:45:28.267Z,7.52
2017-12-22T03:48:03.320Z,7.55
2017-12-22T03:50:38.153Z,7.58
2017-12-22T03:53:13.099Z,7.58
2017-12-22T03:55:48.439Z,7.59
2017-12-22T03:58:23.056Z,7.60
2017-12-22T04:00:57.808Z,7.68
2017-12-22T04:03:32.321Z,7.67
2017-12-22T04:06:07.068Z,7.67
2017-12-22T04:08:42.357Z,7.67
2017-12-22T04:11:17.506Z,7.64
2017-12-22T04:13:52.481Z,7.65
2017-12-22T04:16:27.636Z,7.68
2017-12-22T04:19:02.516Z,7.75
2017-12-22T04:21:37.364Z,7.74
2017-12-22T04:24:12.397Z,7.82
2017-12-22T04:26:47.796Z,7.84
2017-12-22T04:29:22.908Z,7.84
2017-12-22T04:31:57.733Z,7.87
2017-12-22T04:34:32.952Z,7.91
2017-12-22T04:37:07.580Z,7.77
2017-12-22T04:39:42.519Z,7.96
2017-12-22T04:42:17.592Z,8.01
2017-12-22T04:44:52.601Z,7.96
2017-12-22T04:47:27.644Z,7.96
2017-12-22T04:50:02.676Z,7.95
2017-12-22T04:52:37.581Z,7.94
2017-12-22T04:55:12.032Z,7.93
2017-12-22T04:57:46.879Z,7.91
2017-12-22T05:00:22.830Z,7.92
2017-12-22T05:02:57.592Z,7.92
2017-12-22T05:05:32.604Z,7.97
2017-12-22T05:08:07.783Z,7.96
2017-12-22T05:10:42.307Z,8.01
2017-12-22T05:13:17.063Z,7.98
2017-12-22T05:15:52.027Z,7.99
2017-12-22T05:18:26.449Z,7.98
2017-12-22T05:21:01.501Z,7.95
2017-12-22T05:23:36.696Z,7.91
2017-12-22T05:26:11.548Z,7.91
2017-12-22T05:28:46.376Z,7.95
2017-12-22T05:31:21.046Z,7.97
2017-12-22T05:33:55.690Z,7.99
2017-12-22T05:36:30.515Z,7.99
2017-12-22T05:39:04.577Z,8.00
2017-12-22T05:41:39.405Z,8.00
2017-12-22T05:44:14.544Z,8.01
2017-12-22T05:46:49.305Z,8.11
2017-12-22T05:49:24.217Z,8.09
2017-12-22T05:51:59.289Z,8.06
2017-12-22T05:54:34.222Z,8.12
2017-12-22T05:57:09.295Z,8.10
2017-12-22T05:59:44.223Z,8.10
2017-12-22T06:02:19.268Z,8.10
2017-12-22T06:04:54.225Z,8.12
2017-12-22T06:07:29.080Z,8.10
2017-12-22T06:10:03.609Z,8.12
2017-12-22T06:12:38.645Z,8.16
2017-12-22T06:15:13.824Z,8.22
2017-12-22T06:17:48.733Z,8.25
2017-12-22T06:20:23.384Z,8.27
2017-12-22T06:22:58.494Z,8.31
2017-12-22T06:25:33.164Z,8.34
2017-12-22T06:28:07.716Z,8.37
2017-12-22T06:30:42.556Z,8.39
2017-12-22T06:33:17.810Z,8.44
2017-12-22T06:35:52.588Z,8.45
2017-12-22T06:38:27.371Z,8.43
2017-12-22T06:41:02.045Z,8.44
2017-12-22T06:43:36.868Z,8.41
2017-12-22T06:46:11.950Z,8.41
2017-12-22T06:48:47.125Z,8.42
2017-12-22T06:51:21.880Z,8.42
2017-12-22T06:53:56.625Z,8.40
2017-12-22T06:56:31.336Z,8.43
2017-12-22T06:59:06.365Z,8.40
2017-12-22T07:01:40.988Z,8.44
2017-12-22T07:04:16.116Z,8.48
2017-12-22T07:06:51.477Z,8.39
2017-12-22T07:09:26.402Z,8.33
2017-12-22T07:12:01.543Z,8.32
2017-12-22T07:14:36.418Z,8.33
2017-12-22T07:17:11.793Z,8.27
2017-12-22T07:19:46.905Z,8.30
2017-12-22T07:22:21.876Z,8.33
2017-12-22T07:24:56.669Z,8.39
2017-12-22T07:27:31.371Z,8.41
2017-12-22T07:30:06.277Z,8.32
2017-12-22T07:32:41.056Z,8.29
2017-12-22T07:35:15.855Z,8.28
2017-12-22T07:37:50.388Z,8.34
2017-12-22T07:40:25.394Z,8.33
2017-12-22T07:43:00.425Z,8.33
2017-12-22T07:45:35.748Z,8.32
2017-12-22T07:48:10.448Z,8.37
2017-12-22T07:50:45.656Z,8.30
2017-12-22T07:53:20.581Z,8.25
2017-12-22T07:55:55.908Z,8.29
2017-12-22T07:58:30.811Z,8.31
2017-12-22T08:01:05.212Z,8.33
2017-12-22T08:03:40.215Z,8.38
2017-12-22T08:06:14.873Z,8.41
2017-12-22T08:08:49.696Z,8.44
2017-12-22T08:11:24.549Z,8.47
2017-12-22T08:13:59.724Z,8.50
2017-12-22T08:16:34.682Z,8.54
2017-12-22T08:19:09.479Z,8.57
2017-12-22T08:21:43.945Z,8.55
2017-12-22T08:24:19.112Z,8.56
2017-12-22T08:26:54.037Z,8.60
2017-12-22T08:29:28.744Z,8.60
2017-12-22T08:32:03.569Z,8.59
2017-12-22T08:34:38.832Z,8.61
2017-12-22T08:37:13.428Z,8.61
2017-12-22T08:39:48.430Z,8.63
2017-12-22T08:42:23.268Z,8.58
2017-12-22T08:44:58.008Z,8.55
2017-12-22T08:47:32.433Z,8.43
2017-12-22T08:50:07.149Z,8.40
2017-12-22T08:52:41.670Z,8.37
2017-12-22T08:55:16.624Z,8.35
2017-12-22T08:57:51.599Z,8.32
2017-12-22T09:00:26.704Z,8.29
2017-12-22T09:03:01.633Z,8.30
2017-12-22T09:05:36.741Z,8.33
2017-12-22T09:08:11.641Z,8.37
2017-12-22T09:10:46.984Z,8.47
2017-12-22T09:13:21.797Z,8.51
2017-12-22T09:15:56.296Z,8.53
2017-12-22T09:18:31.125Z,8.57
2017-12-22T09:21:06.409Z,8.57
2017-12-22T09:23:41.065Z,8.62
2017-12-22T09:26:16.431Z,8.58
2017-12-22T09:28:51.588Z,8.55
2017-12-22T09:31:26.568Z,8.45
2017-12-22T09:34:01.508Z,8.45
2017-12-22T09:36:36.406Z,8.42
2017-12-22T09:39:11.112Z,8.36
2017-12-22T09:41:46.397Z,8.36
2017-12-22T09:44:21.368Z,8.43
2017-12-22T09:46:56.013Z,8.46
2017-12-22T09:49:30.848Z,8.41
2017-12-22T09:52:06.209Z,8.33
2017-12-22T09:54:41.747Z,8.34
2017-12-22T09:57:16.358Z,8.30
2017-12-22T09:59:51.467Z,8.21
2017-12-22T10:02:26.101Z,8.23
2017-12-22T10:05:01.048Z,8.27
2017-12-22T10:07:36.202Z,8.28
2017-12-22T10:10:11.153Z,8.31
2017-12-22T10:12:46.188Z,8.24
2017-12-22T10:15:21.209Z,8.26
2017-12-22T10:17:55.842Z,8.27
2017-12-22T10:20:30.645Z,8.28
2017-12-22T10:23:05.796Z,8.37
2017-12-22T10:25:40.640Z,8.45
2017-12-22T10:28:15.379Z,8.54
2017-12-22T10:30:50.429Z,8.56
2017-12-22T10:33:25.747Z,8.55
2017-12-22T10:36:01.091Z,8.56
2017-12-22T10:38:36.121Z,8.59
2017-12-22T10:41:10.864Z,8.59
2017-12-22T10:43:46.233Z,8.60
2017-12-22T10:46:21.157Z,8.62
2017-12-22T10:48:55.585Z,8.65
2017-12-22T10:51:30.500Z,8.62
2017-12-22T10:54:05.613Z,8.66
2017-12-22T10:56:40.661Z,8.72
2017-12-22T10:59:15.437Z,8.70
2017-12-22T11:01:50.256Z,8.65
2017-12-22T11:04:25.389Z,8.60
2017-12-22T11:07:00.301Z,8.60
2017-12-22T11:09:35.616Z,8.61
2017-12-22T11:12:10.785Z,8.61
2017-12-22T11:14:45.629Z,8.65
2017-12-22T11:17:20.857Z,8.71
2017-12-22T11:19:55.788Z,8.75
2017-12-22T11:22:31.109Z,8.78
2017-12-22T11:25:06.617Z,8.78
2017-12-22T11:27:41.305Z,8.84
2017-12-22T11:30:16.006Z,8.82
2017-12-22T11:32:50.781Z,8.76
2017-12-22T11:35:25.532Z,8.76
2017-12-22T11:38:00.892Z,8.76
2017-12-22T11:40:35.741Z,8.77
2017-12-22T11:43:10.670Z,8.75
2017-12-22T11:45:45.438Z,8.74
2017-12-22T11:48:20.368Z,8.61
2017-12-22T11:50:55.279Z,8.54
2017-12-22T11:53:30.453Z,8.49
2017-12-22T11:56:05.457Z,8.45
2017-12-22T11:58:40.585Z,8.47
2017-12-22T12:01:15.613Z,8.50
2017-12-22T12:03:50.308Z,8.53
2017-12-22T12:06:25.217Z,8.55
2017-12-22T12:08:59.625Z,8.60
2017-12-22T12:11:34.350Z,8.65
2017-12-22T12:14:09.453Z,8.64
2017-12-22T12:16:44.386Z,8.61
2017-12-22T12:19:19.644Z,8.60
2017-12-22T12:21:54.668Z,8.58
2017-12-22T12:24:30.252Z,8.57
2017-12-22T12:27:05.149Z,8.57
2017-12-22T12:29:40.336Z,8.52
2017-12-22T12:32:15.553Z,8.47
2017-12-22T12:34:50.053Z,8.47
2017-12-22T12:37:25.290Z,8.49
2017-12-22T12:40:00.090Z,8.53
2017-12-22T12:42:34.945Z,8.52
2017-12-22T12:45:09.534Z,8.47
2017-12-22T12:47:44.768Z,8.53
2017-12-22T12:50:19.762Z,8.52
2017-12-22T12:52:54.934Z,8.56
2017-12-22T12:55:30.006Z,8.59
2017-12-22T12:58:04.881Z,8.58
2017-12-22T13:00:40.082Z,8.47
2017-12-22T13:03:15.425Z,8.54
2017-12-22T13:05:50.581Z,8.48
2017-12-22T13:08:25.065Z,8.37
2017-12-22T13:11:00.289Z,8.29
2017-12-22T13:13:34.854Z,8.32
2017-12-22T13:16:09.793Z,8.33
2017-12-22T13:18:44.357Z,8.35
2017-12-22T13:21:19.285Z,8.41
2017-12-22T13:23:54.213Z,8.45
2017-12-22T13:26:29.150Z,8.43
2017-12-22T13:29:04.093Z,8.38
2017-12-22T13:31:39.364Z,8.36
2017-12-22T13:34:14.174Z,8.27
2017-12-22T13:36:48.581Z,8.21
2017-12-22T13:39:23.504Z,8.27
2017-12-22T13:41:58.858Z,8.24
2017-12-22T13:44:33.783Z,8.15
2017-12-22T13:47:08.717Z,8.08
2017-12-22T13:49:43.297Z,8.08
2017-12-22T13:52:17.750Z,8.10
2017-12-22T13:54:52.750Z,8.06
2017-12-22T13:57:27.656Z,8.04
2017-12-22T14:00:02.801Z,8.06
2017-12-22T14:02:37.735Z,8.08
2017-12-22T14:05:13.048Z,8.06
2017-12-22T14:07:48.120Z,8.07
2017-12-22T14:10:23.124Z,8.09
2017-12-22T14:12:57.990Z,8.10
2017-12-22T14:15:33.277Z,8.09
2017-12-22T14:18:08.540Z,8.07
2017-12-22T14:20:43.049Z,8.05
2017-12-22T14:23:17.645Z,8.03
2017-12-22T14:25:52.547Z,8.08
2017-12-22T14:28:27.801Z,8.10
2017-12-22T14:31:02.930Z,8.08
2017-12-22T14:33:38.356Z,8.08
2017-12-22T14:36:13.311Z,8.12
2017-12-22T14:38:48.414Z,8.15
2017-12-22T14:41:23.364Z,8.14
2017-12-22T14:43:58.626Z,8.17
2017-12-22T14:46:33.677Z,8.20
2017-12-22T14:49:08.720Z,8.23
2017-12-22T14:51:43.177Z,8.15
2017-12-22T14:54:18.309Z,7.98
2017-12-22T14:56:53.484Z,7.85
2017-12-22T14:59:28.614Z,7.75
2017-12-22T15:02:03.732Z,7.66
2017-12-22T15:04:38.817Z,7.55
2017-12-22T15:07:13.733Z,7.57
2017-12-22T15:09:48.880Z,7.62
2017-12-22T15:12:24.101Z,7.69
2017-12-22T15:14:59.044Z,7.76
2017-12-22T15:17:34.162Z,7.78
2017-12-22T15:20:09.394Z,7.79
2017-12-22T15:22:44.221Z,7.79
2017-12-22T15:25:19.140Z,7.79
2017-12-22T15:27:54.204Z,7.79
2017-12-22T15:30:29.073Z,7.81
2017-12-22T15:33:03.960Z,7.80
2017-12-22T15:35:39.186Z,7.80
2017-12-22T15:38:14.120Z,7.85
2017-12-22T15:40:48.989Z,7.91
2017-12-22T15:43:23.868Z,7.82
2017-12-22T15:45:58.597Z,7.72
2017-12-22T15:48:33.352Z,7.61
2017-12-22T15:51:08.385Z,7.55
2017-12-22T15:53:43.539Z,7.45
2017-12-22T15:56:18.776Z,7.36
2017-12-22T15:58:53.648Z,7.31
2017-12-22T16:01:28.484Z,7.26
2017-12-22T16:04:03.444Z,7.28
2017-12-22T16:06:38.608Z,7.25
2017-12-22T16:09:13.807Z,7.17
2017-12-22T16:11:48.784Z,7.19
2017-12-22T16:14:23.508Z,7.20
2017-12-22T16:16:58.402Z,7.22
2017-12-22T16:19:33.263Z,7.21
2017-12-22T16:22:08.175Z,7.21
2017-12-22T16:24:42.977Z,7.16
2017-12-22T16:27:18.112Z,7.14
2017-12-22T16:29:53.129Z,7.16
2017-12-22T16:32:28.145Z,7.19
2017-12-22T16:35:03.289Z,7.19
2017-12-22T16:37:38.483Z,7.12
2017-12-22T16:40:13.317Z,7.11
2017-12-22T16:42:48.360Z,7.14
2017-12-22T16:45:23.190Z,7.15
2017-12-22T16:47:58.196Z,7.13
2017-12-22T16:50:33.621Z,7.06
2017-12-22T16:53:08.594Z,7.04
2017-12-22T16:55:43.705Z,7.06
2017-12-22T16:58:18.795Z,7.10
2017-12-22T17:00:54.042Z,7.10
2017-12-22T17:03:28.855Z,7.10
2017-12-22T17:06:03.671Z,7.05
2017-12-22T17:08:38.685Z,7.09
2017-12-22T17:11:13.808Z,7.08
2017-12-22T17:13:48.825Z,7.12
2017-12-22T17:16:23.245Z,7.07
2017-12-22T17:18:58.057Z,7.00
2017-12-22T17:21:32.788Z,6.97
2017-12-22T17:24:07.976Z,6.91
2017-12-22T17:26:42.692Z,6.87
2017-12-22T17:29:18.191Z,6.89
2017-12-22T17:31:52.943Z,6.88
2017-12-22T17:34:28.101Z,6.93
2017-12-22T17:37:02.909Z,6.97
2017-12-22T17:39:38.024Z,7.01
2017-12-22T17:42:12.745Z,7.04
2017-12-22T17:44:47.747Z,6.99
2017-12-22T17:47:23.073Z,7.00
2017-12-22T17:49:58.272Z,6.97
2017-12-22T17:52:33.416Z,6.93
2017-12-22T17:55:08.457Z,6.93
2017-12-22T17:57:43.691Z,6.93
2017-12-22T18:00:18.696Z,6.88
2017-12-22T18:02:53.693Z,6.91
2017-12-22T18:05:28.500Z,6.95
2017-12-22T18:08:03.236Z,6.93
2017-12-22T18:10:37.963Z,6.95
2017-12-22T18:13:12.539Z,6.96
2017-12-22T18:15:47.930Z,6.93
2017-12-22T18:18:22.708Z,6.91
2017-12-22T18:20:57.252Z,6.87
2017-12-22T18:23:32.020Z,6.87
2017-12-22T18:26:06.664Z,6.96
2017-12-22T18:28:41.724Z,6.95
2017-12-22T18:31:16.637Z,6.95
2017-12-22T18:33:51.457Z,6.94
2017-12-22T18:36:25.988Z,6.93
2017-12-22T18:39:00.948Z,6.88
2017-12-22T18:41:36.167Z,6.88
2017-12-22T18:44:11.422Z,6.88
2017-12-22T18:46:46.351Z,6.88
2017-12-22T18:49:21.219Z,7.44
2017-12-22T18:51:56.300Z,8.45
2017-12-22T18:54:30.868Z,9.07
2017-12-22T18:57:05.972Z,9.46
2017-12-22T18:59:41.006Z,9.94
2017-12-22T19:02:15.417Z,10.13
2017-12-22T19:04:50.156Z,10.34
2017-12-22T19:07:25.492Z,10.39
2017-12-22T19:10:00.644Z,10.28
2017-12-22T19:12:35.473Z,10.26
2017-12-22T19:15:10.624Z,10.24
2017-12-22T19:17:45.573Z,10.36
2017-12-22T19:20:20.653Z,10.70
2017-12-22T19:22:55.252Z,10.61
2017-12-22T19:25:30.468Z,10.48
2017-12-22T19:28:05.272Z,10.15
2017-12-22T19:30:40.209Z,9.59
2017-12-22T19:33:15.048Z,9.07
2017-12-22T19:35:50.203Z,8.70
2017-12-22T19:38:25.505Z,8.31
2017-12-22T19:41:00.438Z,8.05
2017-12-22T19:43:35.232Z,7.82
2017-12-22T19:46:10.271Z,7.65
2017-12-22T19:48:45.570Z,7.55
2017-12-22T19:51:20.676Z,7.47
2017-12-22T19:53:55.300Z,7.44
2017-12-22T19:56:30.410Z,7.33
2017-12-22T19:59:05.064Z,7.31
2017-12-22T20:01:39.874Z,7.27
2017-12-22T20:04:14.988Z,7.12
2017-12-22T20:06:50.018Z,7.01
2017-12-22T20:09:25.019Z,7.05
2017-12-22T20:11:59.833Z,7.08
2017-12-22T20:14:34.656Z,7.06
2017-12-22T20:17:09.868Z,7.04
2017-12-22T20:19:44.909Z,6.94
2017-12-22T20:22:19.808Z,6.90
2017-12-22T20:24:54.717Z,6.86
2017-12-22T20:27:29.720Z,6.79
2017-12-22T20:30:04.436Z,6.71
2017-12-22T20:32:39.605Z,6.62
2017-12-22T20:35:14.609Z,6.55
2017-12-22T20:37:49.661Z,6.51
2017-12-22T20:40:24.771Z,6.56
2017-12-22T20:42:59.900Z,6.56
2017-12-22T20:45:35.021Z,6.59
2017-12-22T20:48:10.125Z,6.72
2017-12-22T20:50:45.058Z,6.73
2017-12-22T20:53:20.110Z,6.79
2017-12-22T20:55:54.928Z,6.83
2017-12-22T20:58:29.754Z,6.84
2017-12-22T21:01:04.164Z,6.79
2017-12-22T21:03:38.569Z,6.80
2017-12-22T21:06:13.604Z,6.84
2017-12-22T21:08:48.501Z,6.87
2017-12-22T21:11:23.530Z,6.86
2017-12-22T21:13:58.461Z,6.84
2017-12-22T21:16:33.657Z,6.82
2017-12-22T21:19:08.766Z,6.73
2017-12-22T21:21:43.793Z,6.66
2017-12-22T21:24:18.590Z,6.64
2017-12-22T21:26:53.716Z,6.62
2017-12-22T21:29:28.656Z,6.61
2017-12-22T21:32:03.395Z,6.62
2017-12-22T21:34:38.137Z,6.69
2017-12-22T21:37:13.064Z,6.74
2017-12-22T21:39:48.066Z,6.85
2017-12-22T21:42:23.193Z,6.94
2017-12-22T21:44:58.040Z,6.86
2017-12-22T21:47:33.172Z,6.79
2017-12-22T21:50:08.077Z,6.78
2017-12-22T21:52:43.077Z,6.78
2017-12-22T21:55:18.405Z,6.72
2017-12-22T21:57:53.536Z,6.63
2017-12-22T22:00:28.456Z,6.55
2017-12-22T22:03:02.928Z,6.50
2017-12-22T22:05:38.235Z,6.49
2017-12-22T22:08:13.456Z,6.52
2017-12-22T22:10:48.493Z,6.50
2017-12-22T22:13:23.401Z,6.48
2017-12-22T22:15:58.297Z,6.46
2017-12-22T22:18:33.073Z,6.46
2017-12-22T22:21:08.027Z,6.42
2017-12-22T22:23:42.959Z,6.46
2017-12-22T22:26:17.881Z,6.52
2017-12-22T22:28:53.070Z,6.54
2017-12-22T22:31:28.116Z,6.56
2017-12-22T22:34:03.326Z,6.51
2017-12-22T22:36:38.250Z,6.39
2017-12-22T22:39:13.359Z,6.28
2017-12-22T22:41:48.384Z,6.26
2017-12-22T22:44:23.176Z,6.19
2017-12-22T22:46:58.318Z,6.07
2017-12-22T22:49:33.309Z,6.04
2017-12-22T22:52:08.622Z,6.02
2017-12-22T22:54:43.542Z,6.06
2017-12-22T22:57:18.674Z,6.10
2017-12-22T22:59:53.861Z,6.15
2017-12-22T23:02:28.834Z,6.18
2017-12-22T23:05:04.005Z,6.17
2017-12-22T23:07:38.958Z,6.13
2017-12-22T23:10:13.573Z,6.13
2017-12-22T23:12:48.294Z,6.01
2017-12-22T23:15:23.093Z,6.01
2017-12-22T23:17:58.127Z,6.04
2017-12-22T23:20:33.077Z,6.03
2017-12-22T23:23:07.882Z,6.09
2017-12-22T23:25:42.809Z,6.09
2017-12-22T23:28:17.914Z,6.07
2017-12-22T23:30:53.094Z,6.07
2017-12-22T23:33:28.326Z,6.11
2017-12-22T23:36:03.324Z,6.20
2017-12-22T23:38:38.360Z,6.22
2017-12-22T23:41:13.493Z,6.19
2017-12-22T23:43:48.607Z,6.23
2017-12-22T23:46:23.377Z,6.28
2017-12-22T23:48:58.369Z,6.30
2017-12-22T23:51:33.402Z,6.28
2017-12-22T23:54:08.401Z,6.29
2017-12-22T23:56:43.538Z,6.28
2017-12-22T23:59:18.380Z,6.30
